This is the latest recevied weather packets stored in our database for station/object HS5NMF. If no packets are shown the sender has not sent any weather packets the latest 1 day(s).
| Time | Temp. | Humidity | Pressure | Rain* | Wind** | Luminosity | Snow |
|---|---|---|---|---|---|---|---|
| 1778029423 | 33.33° C | 69% | 979 hPa | - | 0 m/s | 0 W/m² | - |
| 1778029422 | 33.33° C | 69% | 979 hPa | - | 0 m/s | 0 W/m² | - |
| 1778029099 | 32.78° C | 70% | 979 hPa | - | 0 m/s | 0 W/m² | - |
| 1778028783 | 32.78° C | 71% | 978 hPa | - | 0 m/s | 0 W/m² | - |
| 1778028776 | 32.78° C | 71% | - | - | 0 m/s | - | - |
| 1778028775 | 32.78° C | 71% | 978 hPa | - | 0 m/s | 0 W/m² | - |
| 1778028452 | 32.22° C | 73% | 978 hPa | - | 0 m/s | 0 W/m² | - |
| 1778028127 | 31.67° C | 74% | 978 hPa | - | 0 m/s | 0 W/m² | - |
| 1778027806 | 31.67° C | 76% | 978 hPa | - | 0 m/s | 0 W/m² | - |
| 1778027480 | 31.11° C | 77% | 978 hPa | - | 0 m/s | 0 W/m² | - |
| 1778027159 | 30.56° C | 79% | 978 hPa | - | 0 m/s | 0 W/m² | - |
| 1778026832 | 30° C | 81% | 978 hPa | - | 0 m/s | 0 W/m² | - |
| 1778026512 | 30° C | 82% | 978 hPa | - | 0 m/s | 0 W/m² | - |
| 1778026189 | 29.44° C | 82% | 978 hPa | - | 0 m/s | 0 W/m² | - |
| 1778025866 | 29.44° C | 83% | 978 hPa | - | 0 m/s | 0 W/m² | - |
| 1778025544 | 29.44° C | 84% | 978 hPa | - | 0 m/s | - | - |
| 1778025544 | 29.44° C | 84% | 978 hPa | - | 0 m/s | 0 W/m² | - |
| 1778025221 | 28.89° C | 87% | 978 hPa | - | 0 m/s | 0 W/m² | - |
| 1778024896 | 28.33° C | 91% | 978 hPa | - | 0 m/s | 0 W/m² | - |
| 1778024576 | 27.78° C | 91% | 978 hPa | - | 0 m/s | 0 W/m² | - |
| 1778024250 | 27.78° C | 90% | 978 hPa | - | 0 m/s | 0 W/m² | - |
| 1778023930 | 27.78° C | 90% | 978 hPa | - | 0 m/s | 0 W/m² | - |
| 1778023604 | 28.33° C | 86% | 978 hPa | - | 0 m/s | 0 W/m² | - |
| 1778023280 | 28.33° C | 87% | 978 hPa | - | 0 m/s | 0 W/m² | - |
| 1778022958 | 27.78° C | 90% | 978 hPa | - | 0 m/s | 0 W/m² | - |
* Rain since midnight (hover to see other rain measurements)
** Current wind speed in m/s (hover to see current wind gust speed)